Terminal Aerodrome Forecast
Issued by NWS Omaha/Valley, NE

Home | Current Version | Previous Version | Graphics & Text | Print | Product List | Glossary On
Versions: 1 2 3 4 5 6 7 8 9 10 11 12 13 14 15 16 17 18
000
FTUS43 KOAX 281738
TAFOFK
TAF
KOFK 281738Z 2818/2918 31019G24KT P6SM -RA SCT015 BKN040 OVC080
     FM282000 30013G21KT P6SM OVC050
     FM290200 27005KT P6SM OVC100
     FM290500 25003KT P6SM SKC=

USA.gov is the U.S. government's official web portal to all federal, state and local government web resources and services.